Time;durP1;ratioP1;P1;durP2;ratioP2;P2;SDS_P1;SDS_P2;PMS_P1;PMS_P2;Temp;Humidity;BMP_temperature;BMP_pressure;BME280_temperature;BME280_humidity;BME280_pressure;Samples;Min_cycle;Max_cycle;Signal;HPM_P1;HPM_P2
2022/12/27 00:01:19;;;;;;;13.93;2.13;;;;;;;12.49;50.14;102155.91;5114249;27;20037;-67
2022/12/27 00:03:45;;;;;;;13.40;2.47;;;;;;;12.73;49.41;102155.09;5132338;27;20490;-67
2022/12/27 00:06:16;;;;;;;14.63;2.23;;;;;;;12.01;51.62;102169.69;5114738;27;20023;-67
2022/12/27 00:08:43;;;;;;;23.87;3.87;;;;;;;11.46;52.27;102164.06;5131640;27;20038;-67
2022/12/27 00:11:12;;;;;;;6.97;1.93;;;;;;;12.53;50.03;102160.31;5132659;27;20091;-67
2022/12/27 00:13:38;;;;;;;9.37;1.83;;;;;;;12.08;51.74;102164.50;5132782;27;20034;-67
2022/12/27 00:16:06;;;;;;;15.23;2.40;;;;;;;12.12;50.95;102156.63;5132462;27;20108;-67
2022/12/27 00:18:32;;;;;;;10.80;2.47;;;;;;;12.43;50.76;102154.13;5132793;27;20824;-67
2022/12/27 00:20:59;;;;;;;10.70;1.93;;;;;;;12.45;51.16;102159.41;5114000;27;20114;-67
2022/12/27 00:23:25;;;;;;;11.83;2.03;;;;;;;12.38;50.36;102153.25;5113867;27;20050;-67
2022/12/27 00:25:51;;;;;;;19.47;2.13;;;;;;;12.03;52.54;102157.47;5132488;27;20019;-67
2022/12/27 00:28:16;;;;;;;14.47;2.00;;;;;;;11.78;52.42;102155.56;5131934;27;20988;-67
2022/12/27 00:30:42;;;;;;;15.77;2.53;;;;;;;12.91;50.77;102159.47;5114893;27;20030;-67
2022/12/27 00:33:07;;;;;;;9.83;1.70;;;;;;;12.57;50.76;102159.44;5114480;27;20061;-68
2022/12/27 00:35:33;;;;;;;7.77;2.03;;;;;;;13.16;49.55;102170.00;5131025;27;20486;-67
2022/12/27 00:37:58;;;;;;;10.60;1.60;;;;;;;12.18;52.12;102177.63;5114762;27;20465;-67
2022/12/27 00:40:24;;;;;;;18.47;2.10;;;;;;;11.70;53.32;102172.09;5131304;27;20027;-66
2022/12/27 00:42:49;;;;;;;18.27;2.13;;;;;;;12.81;50.07;102170.84;5113770;27;20027;-67
2022/12/27 00:45:14;;;;;;;10.63;1.83;;;;;;;12.16;51.72;102178.50;5113245;27;20110;-67
2022/12/27 00:47:40;;;;;;;14.93;2.30;;;;;;;12.46;51.26;102176.88;5113833;27;20027;-67
2022/12/27 00:50:05;;;;;;;9.67;2.00;;;;;;;12.68;50.68;102168.19;5113160;27;20026;-67
2022/12/27 00:52:31;;;;;;;12.40;2.23;;;;;;;12.96;50.21;102173.50;5114402;27;20026;-67
2022/12/27 00:54:56;;;;;;;15.33;2.60;;;;;;;12.24;51.16;102171.56;5130850;27;20058;-67
2022/12/27 00:57:21;;;;;;;20.87;1.90;;;;;;;12.95;50.04;102161.25;5131993;27;20046;-67
2022/12/27 00:59:47;;;;;;;8.93;2.20;;;;;;;12.84;50.72;102168.22;5112997;27;20027;-67
2022/12/27 01:02:12;;;;;;;11.00;1.80;;;;;;;12.57;51.36;102177.78;5128433;27;20023;-67
2022/12/27 01:04:37;;;;;;;12.90;2.47;;;;;;;12.81;49.88;102181.34;5130937;27;20118;-67
2022/12/27 01:07:03;;;;;;;16.20;1.93;;;;;;;13.33;49.59;102183.16;5114375;27;20027;-67
2022/12/27 01:09:28;;;;;;;11.03;2.10;;;;;;;13.07;49.33;102179.63;5123156;27;20461;-67
2022/12/27 01:11:54;;;;;;;11.97;1.73;;;;;;;12.73;50.66;102192.72;5093181;28;20072;-67
2022/12/27 01:14:19;;;;;;;10.40;1.70;;;;;;;13.44;49.46;102204.22;5093446;27;20102;-67
2022/12/27 01:16:46;;;;;;;21.97;3.10;;;;;;;13.96;48.23;102204.13;5111595;27;20054;-67
2022/12/27 01:19:11;;;;;;;13.07;3.10;;;;;;;14.95;45.51;102205.47;5113467;27;20026;-67
2022/12/27 01:21:36;;;;;;;15.17;3.33;;;;;;;13.12;48.84;102212.88;5113118;27;20053;-67
2022/12/27 01:24:04;;;;;;;11.93;3.20;;;;;;;14.98;45.65;102211.59;5113391;28;20058;-66
2022/12/27 01:26:29;;;;;;;15.33;2.17;;;;;;;14.05;47.18;102206.75;5131128;27;20021;-68
2022/12/27 01:28:55;;;;;;;11.50;2.03;;;;;;;14.59;45.73;102213.56;5132299;27;20094;-67
2022/12/27 01:31:24;;;;;;;11.70;2.20;;;;;;;13.73;47.97;102220.81;5111585;28;20023;-67
2022/12/27 01:33:54;;;;;;;9.33;1.93;;;;;;;13.22;48.33;102227.78;5132520;27;20023;-67
2022/12/27 01:36:22;;;;;;;10.70;2.20;;;;;;;13.57;47.91;102222.59;5113099;28;20443;-67
2022/12/27 01:38:48;;;;;;;4.77;1.63;;;;;;;13.26;47.92;102234.78;5131844;28;20026;-67
2022/12/27 01:44:41;;;;;;;11.77;2.13;;;;;;;14.04;46.51;102236.53;5132606;28;20030;-67
2022/12/27 01:47:44;;;;;;;13.07;2.50;;;;;;;13.23;48.17;102251.41;5112028;27;20091;-67
2022/12/27 01:50:12;;;;;;;14.77;2.55;;;;;;;12.21;50.86;102244.91;5118307;27;20363;-67
2022/12/27 01:53:01;;;;;;;15.43;2.67;;;;;;;12.84;50.06;102242.56;5116437;27;20046;-67
2022/12/27 01:55:48;;;;;;;18.93;3.77;;;;;;;13.44;48.85;102238.34;5115665;27;20054;-66
2022/12/27 01:58:21;;;;;;;13.97;2.10;;;;;;;12.77;49.91;102242.56;5136181;27;20039;-67
2022/12/27 02:00:47;;;;;;;;;;;;;;;13.58;48.11;102237.44;5135889;27;20023;-67
2022/12/27 02:03:18;;;;;;;16.67;2.00;;;;;;;13.78;47.46;102243.56;5134084;27;19922;-67
2022/12/27 02:05:44;;;;;;;19.47;2.57;;;;;;;12.54;49.36;102259.06;5115658;27;20131;-67
2022/12/27 02:08:35;;;;;;;12.80;2.10;;;;;;;13.52;48.33;102262.88;5116868;27;20482;-67
2022/12/27 02:11:02;;;;;;;14.40;1.80;;;;;;;12.89;48.96;102255.72;5133554;27;20110;-67
2022/12/27 02:13:30;;;;;;;11.50;2.10;;;;;;;13.90;47.31;102251.44;5105253;27;20031;-67
2022/12/27 02:15:56;;;;;;;25.03;2.47;;;;;;;12.56;50.59;102259.97;5114599;27;20463;-67
2022/12/27 02:18:21;;;;;;;10.33;2.07;;;;;;;12.46;51.42;102255.53;5134643;27;20118;-67
2022/12/27 02:21:02;;;;;;;17.60;1.97;;;;;;;12.40;51.49;102266.88;5134962;27;20027;-67
2022/12/27 02:24:02;;;;;;;6.70;2.00;;;;;;;13.07;50.90;102261.00;5117097;27;20547;-67
2022/12/27 02:26:40;;;;;;;15.30;2.10;;;;;;;12.64;51.71;102271.38;5132138;27;20065;-67
2022/12/27 02:29:28;;;;;;;12.10;2.00;;;;;;;13.27;49.21;102273.31;5116482;27;20833;-67
2022/12/27 02:32:02;;;;;;;14.83;2.23;;;;;;;12.63;51.21;102274.84;5121167;27;20051;-67
2022/12/27 02:34:36;;;;;;;8.83;1.70;;;;;;;14.21;47.50;102261.91;5134909;27;20167;-67
2022/12/27 02:37:06;;;;;;;14.63;2.80;;;;;;;13.02;49.78;102272.38;5133299;27;20035;-67
2022/12/27 02:39:38;;;;;;;9.93;2.13;;;;;;;12.98;50.62;102275.84;5116313;27;20030;-67
2022/12/27 02:53:26;;;;;;;10.77;2.50;;;;;;;13.57;49.74;102293.50;5134963;27;20034;-67
2022/12/27 02:59:35;;;;;;;13.83;3.20;;;;;;;14.00;47.58;102284.75;5114623;28;20513;-67
2022/12/27 03:15:55;;;;;;;12.07;2.97;;;;;;;13.90;47.64;102285.63;5114317;28;20042;-67
2022/12/27 03:18:27;;;;;;;12.03;2.20;;;;;;;14.21;46.38;102290.84;5131550;27;20027;-67
2022/12/27 03:26:31;;;;;;;19.40;2.73;;;;;;;14.19;46.37;102301.38;5133131;27;20076;-68
2022/12/27 03:34:46;;;;;;;9.70;2.10;;;;;;;13.25;47.14;102311.81;5114086;28;20156;-67
2022/12/27 03:40:06;;;;;;;9.87;2.00;;;;;;;13.58;46.80;102320.66;5132743;27;20036;-67
2022/12/27 03:46:32;;;;;;;14.43;2.53;;;;;;;13.56;47.11;102320.66;5134007;27;20034;-67
2022/12/27 03:48:15;;;;;;;8.70;1.90;;;;;;;13.52;46.47;102325.91;5117327;27;20111;-67
2022/12/27 03:50:53;;;;;;;17.30;2.07;;;;;;;14.04;45.41;102319.78;5113534;27;20054;-67
2022/12/27 03:53:22;;;;;;;15.03;1.63;;;;;;;13.38;46.54;102329.38;5114630;27;20024;-67
2022/12/27 03:55:48;;;;;;;19.80;2.07;;;;;;;14.51;44.19;102321.47;5132876;27;20023;-67
2022/12/27 03:58:13;;;;;;;9.83;1.30;;;;;;;13.36;46.52;102327.63;5114664;27;20038;-67
2022/12/27 04:00:39;;;;;;;7.57;1.90;;;;;;;13.85;46.15;102330.31;5132107;27;20023;-68
2022/12/27 04:03:04;;;;;;;19.27;2.27;;;;;;;13.88;46.69;102334.69;5115338;27;20038;-67
2022/12/27 04:05:30;;;;;;;16.20;2.40;;;;;;;14.47;45.13;102324.13;5115238;27;20037;-67
2022/12/27 04:35:15;;;;;;;16.13;2.73;;;;;;;13.29;47.98;102329.31;5132380;27;20034;-67
2022/12/27 04:37:40;;;;;;;15.73;2.50;;;;;;;13.94;46.51;102337.31;5130817;27;20031;-67
2022/12/27 04:56:31;;;;;;;12.37;2.40;;;;;;;14.36;44.89;102327.63;5114833;27;20072;-68
2022/12/27 05:04:25;;;;;;;16.10;2.30;;;;;;;13.22;47.96;102338.06;5131285;27;20055;-66
2022/12/27 05:06:51;;;;;;;14.13;2.57;;;;;;;13.42;46.57;102339.88;5132633;27;20020;-67
2022/12/27 05:14:45;;;;;;;15.10;2.73;;;;;;;13.23;47.39;102361.69;5131118;27;20088;-67
2022/12/27 05:17:10;;;;;;;17.33;3.27;;;;;;;13.72;45.49;102354.81;5130527;27;20019;-67
2022/12/27 05:19:35;;;;;;;17.67;2.43;;;;;;;13.88;45.53;102364.47;5112983;27;20038;-67
2022/12/27 05:27:28;;;;;;;11.83;2.20;;;;;;;13.85;45.68;102372.34;5131953;27;20405;-68
2022/12/27 05:29:54;;;;;;;13.20;3.00;;;;;;;14.03;44.97;102379.38;5112867;27;20023;-67
2022/12/27 05:32:19;;;;;;;21.50;2.30;;;;;;;13.94;44.83;102382.00;5114745;28;20028;-67
2022/12/27 05:34:44;;;;;;;17.33;4.43;;;;;;;13.67;45.83;102378.47;5111568;28;20597;-67
2022/12/27 05:37:10;;;;;;;9.73;2.30;;;;;;;13.16;47.06;102380.03;5093097;28;20016;-69
2022/12/27 05:39:35;;;;;;;19.27;3.40;;;;;;;12.08;49.38;102374.16;5098501;28;20064;-67
2022/12/27 05:42:02;;;;;;;15.97;2.80;;;;;;;12.78;48.62;102367.63;5112530;28;20056;-67
2022/12/27 05:44:27;;;;;;;17.80;2.90;;;;;;;12.69;48.88;102379.84;5131678;28;20027;-67
2022/12/27 05:46:53;;;;;;;17.23;2.63;;;;;;;12.16;49.33;102375.97;5112414;28;20019;-67
2022/12/27 05:49:19;;;;;;;17.43;2.77;;;;;;;12.80;48.70;102371.13;5112969;28;20023;-67
2022/12/27 05:51:44;;;;;;;16.00;2.20;;;;;;;12.52;48.68;102370.97;5130076;28;20547;-67
2022/12/27 05:54:09;;;;;;;10.40;2.57;;;;;;;13.50;46.64;102372.31;5132117;28;20031;-68
2022/12/27 05:56:36;;;;;;;11.03;2.53;;;;;;;13.43;46.24;102374.03;5131992;28;20051;-67
2022/12/27 05:59:02;;;;;;;9.87;2.30;;;;;;;13.49;46.18;102379.31;5130404;28;20072;-67
2022/12/27 06:01:27;;;;;;;9.07;2.73;;;;;;;13.82;45.08;102374.09;5112890;28;20027;-67
2022/12/27 06:03:52;;;;;;;10.77;2.73;;;;;;;13.55;45.93;102383.72;5130516;28;20134;-68
2022/12/27 06:06:18;;;;;;;21.90;2.73;;;;;;;13.36;46.53;102381.00;5112984;28;20019;-67
2022/12/27 06:08:43;;;;;;;10.50;2.33;;;;;;;13.73;45.68;102388.97;5113623;28;20031;-67
2022/12/27 06:11:17;;;;;;;9.10;2.43;;;;;;;14.09;45.34;102391.63;5112080;28;20051;-67
2022/12/27 06:13:47;;;;;;;9.97;2.00;;;;;;;13.79;45.44;102392.50;5111917;28;20023;-67
2022/12/27 06:16:12;;;;;;;7.37;1.87;;;;;;;12.97;47.70;102398.34;5112487;28;20034;-67
2022/12/27 06:18:39;;;;;;;17.23;2.90;;;;;;;12.52;48.36;102403.31;5113498;28;20041;-67
2022/12/27 06:21:09;;;;;;;12.70;2.10;;;;;;;12.95;47.84;102418.44;5108353;28;20457;-67
2022/12/27 06:23:36;;;;;;;15.20;1.87;;;;;;;12.93;47.41;102420.19;5122346;27;20019;-67
2022/12/27 06:26:07;;;;;;;10.47;1.83;;;;;;;12.53;49.26;102418.19;5112666;28;20371;-67
2022/12/27 06:28:32;;;;;;;13.47;2.00;;;;;;;13.00;48.24;102421.97;5113036;28;20015;-67
2022/12/27 06:30:59;;;;;;;12.20;2.03;;;;;;;11.38;51.83;102429.28;5129657;28;20521;-67
2022/12/27 06:33:25;;;;;;;12.73;2.43;;;;;;;11.38;52.37;102418.81;5109360;27;20031;-67
2022/12/27 06:35:50;;;;;;;9.97;2.27;;;;;;;11.80;51.37;102415.78;5115711;27;20019;-67
2022/12/27 06:38:15;;;;;;;16.57;2.13;;;;;;;12.10;51.75;102409.09;5134238;27;20019;-67
2022/12/27 06:40:41;;;;;;;15.80;2.37;;;;;;;11.66;53.04;102413.91;5115622;27;20080;-67
2022/12/27 06:43:06;;;;;;;20.53;2.80;;;;;;;12.85;49.51;102408.78;5135158;27;20019;-67
2022/12/27 06:45:31;;;;;;;15.37;2.10;;;;;;;12.28;49.66;102409.28;5112611;27;20019;-67
2022/12/27 06:47:57;;;;;;;16.37;2.50;;;;;;;12.86;49.17;102418.41;5134306;27;20062;-67
2022/12/27 06:50:22;;;;;;;19.47;1.93;;;;;;;12.59;49.82;102417.34;5117047;27;20089;-67
2022/12/27 06:52:47;;;;;;;16.23;2.80;;;;;;;12.19;50.76;102430.16;5113966;27;20023;-67
2022/12/27 06:55:13;;;;;;;18.07;1.93;;;;;;;12.98;48.44;102428.09;5109246;27;20030;-68
2022/12/27 06:57:38;;;;;;;9.23;2.00;;;;;;;12.63;49.78;102431.38;5132703;27;20113;-67
2022/12/27 07:00:04;;;;;;;11.97;2.23;;;;;;;12.60;50.04;102431.34;5115619;27;20019;-67
2022/12/27 07:02:29;;;;;;;22.33;2.10;;;;;;;13.21;48.09;102429.06;5113672;27;20034;-67
2022/12/27 07:04:55;;;;;;;13.73;2.60;;;;;;;13.33;47.62;102424.75;5115183;27;20039;-68
2022/12/27 07:07:20;;;;;;;12.57;2.90;;;;;;;12.86;48.28;102436.78;5134948;27;20023;-67
2022/12/27 07:09:45;;;;;;;11.83;3.40;;;;;;;12.94;48.01;102444.69;5113695;27;20037;-67
2022/12/27 07:12:11;;;;;;;15.23;2.30;;;;;;;12.42;49.42;102443.47;5114491;27;20364;-67
2022/12/27 07:14:36;;;;;;;13.40;2.57;;;;;;;12.97;48.08;102437.72;5132271;27;20027;-67
2022/12/27 07:17:01;;;;;;;16.10;3.90;;;;;;;12.45;50.34;102442.63;5115605;27;20050;-68
2022/12/27 07:19:27;;;;;;;16.47;2.90;;;;;;;12.89;48.39;102442.03;5130767;27;20084;-67
2022/12/27 07:21:52;;;;;;;14.40;3.67;;;;;;;13.24;48.28;102438.72;5114960;27;20023;-67
2022/12/27 07:24:17;;;;;;;12.20;3.77;;;;;;;11.99;50.56;102443.97;5133023;27;20093;-67
2022/12/27 07:26:43;;;;;;;16.50;4.33;;;;;;;13.02;49.91;102441.25;5109471;27;20050;-67
2022/12/27 07:29:08;;;;;;;21.70;3.77;;;;;;;12.31;50.83;102440.75;5134148;27;20019;-67
2022/12/27 07:31:34;;;;;;;14.53;3.60;;;;;;;13.21;49.00;102436.06;5111669;27;20110;-67
2022/12/27 07:34:01;;;;;;;16.43;3.37;;;;;;;12.65;50.98;102451.53;5129819;27;20107;-68
2022/12/27 07:36:31;;;;;;;17.10;3.33;;;;;;;11.91;51.97;102450.84;5114407;27;20125;-67
2022/12/27 07:38:56;;;;;;;12.53;2.30;;;;;;;10.79;56.26;102471.25;5133360;27;20019;-67
2022/12/27 07:41:22;;;;;;;16.27;3.13;;;;;;;11.95;54.43;102457.91;5133496;27;20514;-68
2022/12/27 07:43:47;;;;;;;16.77;2.90;;;;;;;12.26;53.00;102452.94;5130258;27;20042;-68
2022/12/27 07:46:18;;;;;;;13.30;2.67;;;;;;;11.75;53.37;102449.78;5111441;27;20679;-67
2022/12/27 07:48:44;;;;;;;12.83;3.37;;;;;;;12.52;50.74;102450.53;5114597;27;20027;-67
2022/12/27 07:51:10;;;;;;;14.83;2.73;;;;;;;12.62;51.58;102455.84;5114667;27;20057;-68
2022/12/27 07:53:36;;;;;;;11.33;2.40;;;;;;;12.15;52.82;102459.84;5129221;27;20019;-67
2022/12/27 07:56:23;;;;;;;16.90;3.17;;;;;;;12.40;51.84;102466.16;5110882;27;20450;-67
2022/12/27 07:58:49;;;;;;;16.33;3.07;;;;;;;12.56;51.03;102461.94;5130464;27;20066;-67
2022/12/27 08:01:19;;;;;;;11.43;2.60;;;;;;;12.01;51.90;102471.06;5114380;27;20019;-67
2022/12/27 08:03:44;;;;;;;20.40;3.60;;;;;;;11.36;53.75;102462.44;5113820;27;20529;-67
2022/12/27 08:06:24;;;;;;;16.10;3.10;;;;;;;12.10;52.93;102469.41;5132125;27;20043;-67
2022/12/27 08:08:51;;;;;;;13.97;3.23;;;;;;;12.72;50.54;102476.03;5131773;27;20031;-68
2022/12/27 08:11:16;;;;;;;14.33;2.40;;;;;;;12.19;51.08;102477.34;5114618;27;20095;-68
2022/12/27 08:13:42;;;;;;;9.00;2.70;;;;;;;12.20;50.39;102479.13;5130267;27;20423;-68
2022/12/27 08:16:13;;;;;;;15.77;3.17;;;;;;;11.70;52.44;102482.91;5112929;27;20033;-68
2022/12/27 08:18:38;;;;;;;14.40;4.90;;;;;;;11.45;53.87;102477.38;5111173;27;20027;-68
2022/12/27 08:21:04;;;;;;;7.77;2.63;;;;;;;11.71;51.62;102475.06;5132212;27;20434;-68
2022/12/27 08:23:29;;;;;;;15.07;4.30;;;;;;;12.12;51.41;102465.94;5113176;27;20027;-67
2022/12/27 08:25:55;;;;;;;14.07;3.70;;;;;;;12.24;51.13;102469.53;5128039;27;20055;-67
2022/12/27 08:28:20;;;;;;;17.80;3.77;;;;;;;11.61;52.88;102460.13;5130605;27;20037;-67
2022/12/27 08:30:46;;;;;;;16.27;3.53;;;;;;;11.47;53.23;102464.31;5112400;27;20026;-68
2022/12/27 08:33:11;;;;;;;17.67;3.97;;;;;;;11.71;52.12;102475.06;5131309;27;20038;-68
2022/12/27 08:35:39;;;;;;;22.43;3.73;;;;;;;11.70;52.37;102468.09;5110621;27;20039;-67
2022/12/27 08:38:04;;;;;;;20.50;4.77;;;;;;;11.87;52.05;102483.13;5131628;27;20102;-68
2022/12/27 08:40:29;;;;;;;19.20;3.67;;;;;;;11.73;52.69;102477.69;5113447;27;20110;-67
2022/12/27 08:42:55;;;;;;;9.03;3.67;;;;;;;12.20;50.75;102476.50;5113452;27;20037;-68
2022/12/27 08:45:20;;;;;;;20.20;3.80;;;;;;;11.27;54.13;102483.25;5110150;27;20554;-68
2022/12/27 08:47:46;;;;;;;17.57;4.60;;;;;;;11.87;53.00;102485.75;5113559;27;20034;-68
2022/12/27 08:50:11;;;;;;;11.63;4.33;;;;;;;12.58;50.58;102475.94;5132734;27;20439;-68
2022/12/27 08:52:36;;;;;;;17.27;4.17;;;;;;;12.34;51.67;102477.47;5113107;27;20035;-68
2022/12/27 08:55:03;;;;;;;24.37;4.37;;;;;;;12.12;51.38;102470.31;5111902;27;20031;-68
2022/12/27 08:57:28;;;;;;;18.03;4.13;;;;;;;12.19;51.63;102482.59;5132563;27;20061;-68
2022/12/27 08:59:53;;;;;;;18.77;4.40;;;;;;;11.92;52.74;102476.16;5131208;27;20050;-68
2022/12/27 09:02:19;;;;;;;15.50;4.00;;;;;;;11.26;54.71;102481.50;5129083;27;20031;-68
2022/12/27 09:04:44;;;;;;;14.27;4.80;;;;;;;12.37;51.65;102477.50;5112072;27;20032;-67
2022/12/27 09:07:09;;;;;;;12.43;3.70;;;;;;;12.23;51.42;102481.75;5114002;27;20539;-68
2022/12/27 09:09:35;;;;;;;13.10;4.40;;;;;;;11.87;53.38;102488.38;5131210;27;20102;-68
2022/12/27 09:12:00;;;;;;;18.00;5.30;;;;;;;10.93;55.22;102495.00;5112509;27;20030;-68
2022/12/27 09:14:25;;;;;;;22.77;4.00;;;;;;;11.46;54.00;102496.59;5129554;27;20027;-68
2022/12/27 09:16:51;;;;;;;19.40;4.63;;;;;;;12.59;52.16;102498.69;5129245;27;20109;-68
2022/12/27 09:19:16;;;;;;;12.60;3.90;;;;;;;12.47;51.73;102498.56;5109341;27;20065;-68
2022/12/27 09:21:42;;;;;;;17.27;4.77;;;;;;;12.94;50.54;102500.69;5111632;27;20513;-68
2022/12/27 09:24:12;;;;;;;20.60;4.53;;;;;;;12.55;50.42;102507.38;5129174;27;20517;-68
2022/12/27 09:26:38;;;;;;;10.50;4.50;;;;;;;12.82;50.18;102490.97;5130422;27;20790;-68
2022/12/27 09:29:03;;;;;;;15.43;5.40;;;;;;;12.52;51.44;102507.38;5113163;27;20118;-68
2022/12/27 09:31:29;;;;;;;18.00;4.70;;;;;;;11.55;53.25;102507.16;5095972;28;20037;-68
2022/12/27 09:33:55;;;;;;;17.40;5.20;;;;;;;11.83;53.61;102503.16;5111547;28;20031;-67
2022/12/27 09:36:24;;;;;;;10.83;4.13;;;;;;;11.63;53.42;102497.66;5127088;27;20057;-68
2022/12/27 09:38:51;;;;;;;16.73;4.97;;;;;;;12.03;53.36;102498.19;5112360;28;20023;-67
2022/12/27 09:41:54;;;;;;;14.47;5.23;;;;;;;11.88;53.79;102490.09;5113504;28;20033;-68
2022/12/27 09:44:28;;;;;;;13.18;5.43;;;;;;;12.58;52.87;102491.66;5130012;27;20023;-68
2022/12/27 09:47:09;;;;;;;10.90;4.97;;;;;;;11.98;54.66;102489.38;5111236;28;20027;-68
2022/12/27 09:49:40;;;;;;;15.73;5.30;;;;;;;11.76;54.65;102500.44;5127411;28;20029;-67
2022/12/27 09:52:25;;;;;;;16.87;5.37;;;;;;;12.32;52.86;102494.97;5110823;28;20091;-68
2022/12/27 09:55:20;;;;;;;12.23;4.43;;;;;;;12.20;53.55;102494.84;5128525;27;20475;-68
2022/12/27 09:57:46;;;;;;;16.37;5.93;;;;;;;11.97;53.80;102497.22;5111928;28;20595;-68
2022/12/27 10:00:16;;;;;;;9.67;4.77;;;;;;;12.21;53.16;102502.72;5131576;28;20083;-67
2022/12/27 10:02:43;;;;;;;14.73;5.70;;;;;;;12.10;53.64;102506.09;5130867;27;20033;-68
2022/12/27 10:05:23;;;;;;;11.07;4.43;;;;;;;12.39;53.37;102499.38;5110633;28;20039;-67
2022/12/27 10:08:07;;;;;;;9.90;4.90;;;;;;;12.86;52.57;102497.16;5113431;28;20059;-68
2022/12/27 10:10:41;;;;;;;13.03;4.43;;;;;;;12.50;54.28;102509.09;5135134;27;20059;-68
2022/12/27 10:13:27;;;;;;;16.40;5.33;;;;;;;11.80;54.19;102502.22;5134180;27;20031;-68
2022/12/27 10:15:55;;;;;;;14.57;5.90;;;;;;;12.27;54.15;102512.38;5114889;27;20125;-67
2022/12/27 10:18:39;;;;;;;16.80;5.03;;;;;;;12.41;54.29;102509.88;5135749;27;20038;-68
2022/12/27 10:21:16;;;;;;;14.60;4.87;;;;;;;11.85;54.54;102504.03;5135682;27;20023;-68
2022/12/27 10:23:46;;;;;;;15.10;4.87;;;;;;;12.41;54.30;102501.16;5115238;27;20027;-67
2022/12/27 10:26:17;;;;;;;19.60;5.53;;;;;;;12.71;53.48;102509.25;5116059;27;20031;-68
2022/12/27 10:28:45;;;;;;;12.93;5.03;;;;;;;13.49;51.41;102505.41;5133916;27;20026;-67
2022/12/27 10:31:15;;;;;;;15.67;5.93;;;;;;;13.95;49.95;102498.56;5116152;27;20027;-68
2022/12/27 10:33:41;;;;;;;18.33;5.30;;;;;;;12.56;52.63;102498.66;5112670;27;20455;-68
2022/12/27 10:36:11;;;;;;;14.27;5.03;;;;;;;13.39;51.85;102493.97;5114705;27;20031;-68
2022/12/27 10:38:37;;;;;;;17.83;5.83;;;;;;;13.70;50.23;102488.84;5135193;27;20031;-68
2022/12/27 10:41:23;;;;;;;18.27;5.30;;;;;;;13.06;53.34;102499.88;5116143;27;20099;-68
2022/12/27 10:43:53;;;;;;;12.77;4.87;;;;;;;12.85;53.71;102495.38;5134190;27;20122;-68
2022/12/27 10:46:24;;;;;;;21.57;6.23;;;;;;;12.56;54.61;102488.16;5115286;27;20019;-68
2022/12/27 10:48:56;;;;;;;11.97;5.40;;;;;;;13.17;53.52;102492.06;5115823;27;20031;-67
2022/12/27 10:51:23;;;;;;;16.43;5.33;;;;;;;12.55;55.39;102503.00;5116699;27;20045;-68
2022/12/27 10:53:48;;;;;;;18.50;5.90;;;;;;;12.85;53.83;102495.38;5114439;27;20417;-67
2022/12/27 10:56:20;;;;;;;19.87;6.37;;;;;;;12.44;54.53;102493.31;5114425;27;20118;-67
2022/12/27 10:58:48;;;;;;;15.90;6.20;;;;;;;12.60;53.90;102495.19;5095966;28;20028;-68
2022/12/27 11:01:25;;;;;;;11.60;5.43;;;;;;;13.68;51.57;102485.34;5113877;27;20081;-68
2022/12/27 11:04:06;;;;;;;15.80;6.77;;;;;;;12.07;56.27;102482.47;5132880;27;20076;-68
2022/12/27 11:06:32;;;;;;;18.93;6.07;;;;;;;13.85;51.49;102487.13;5109181;27;20057;-67
2022/12/27 11:08:57;;;;;;;15.70;5.63;;;;;;;12.50;55.68;102493.34;5129320;27;20067;-67
2022/12/27 11:11:25;;;;;;;14.10;6.03;;;;;;;14.23;51.03;102483.69;5115227;27;20027;-68
2022/12/27 11:13:51;;;;;;;17.50;5.83;;;;;;;13.38;52.80;102497.47;5115520;27;20038;-68
2022/12/27 11:16:26;;;;;;;19.27;5.37;;;;;;;13.18;52.69;102496.47;5128156;27;20027;-67
2022/12/27 11:18:54;;;;;;;15.67;5.67;;;;;;;13.50;54.02;102506.28;5133185;27;20027;-68
2022/12/27 11:21:20;;;;;;;17.40;5.30;;;;;;;13.45;53.41;102492.22;5116236;27;20436;-67
2022/12/27 11:23:52;;;;;;;21.37;5.10;;;;;;;12.88;54.62;102495.38;5134004;27;20019;-68
2022/12/27 11:26:42;;;;;;;11.70;5.05;;;;;;;13.17;54.41;102497.31;5112725;27;20459;-67
2022/12/27 11:29:16;;;;;;;13.70;5.87;;;;;;;13.00;54.82;102490.22;5091888;27;20031;-67
2022/12/27 11:31:47;;;;;;;17.70;5.80;;;;;;;13.63;53.96;102481.81;5113522;27;20034;-69
2022/12/27 11:34:32;;;;;;;20.13;5.53;;;;;;;12.77;55.36;102492.69;5113684;27;20050;-68
2022/12/27 11:37:19;;;;;;;14.03;5.80;;;;;;;13.76;53.35;102484.47;5112735;27;20108;-68
2022/12/27 11:39:46;;;;;;;13.87;5.73;;;;;;;13.64;53.65;102488.81;5131579;27;20031;-68
2022/12/27 11:42:37;;;;;;;8.90;5.57;;;;;;;13.09;54.88;102483.28;5112382;27;20031;-68
2022/12/27 11:45:08;;;;;;;12.03;5.87;;;;;;;13.58;54.36;102479.16;5132654;27;20035;-68
2022/12/27 11:48:01;;;;;;;11.17;5.27;;;;;;;13.66;53.40;102480.94;5114558;27;20493;-68
2022/12/27 11:50:26;;;;;;;;;;;;;;;14.63;50.43;102469.69;5113266;27;20096;-68
2022/12/27 11:53:10;;;;;;;6.63;4.20;;;;;;;14.98;50.95;102468.78;5115172;27;20312;-68
2022/12/27 11:55:51;;;;;;;12.67;4.53;;;;;;;14.12;52.95;102467.03;5108458;28;20036;-67
2022/12/27 11:58:30;;;;;;;14.83;4.83;;;;;;;14.20;52.81;102465.28;5095644;27;20032;-68
2022/12/27 12:01:17;;;;;;;9.50;4.37;;;;;;;13.86;52.55;102467.84;5114296;27;20406;-68
2022/12/27 12:04:02;;;;;;;15.97;5.27;;;;;;;13.81;52.70;102469.59;5102647;27;20132;-68
2022/12/27 12:06:47;;;;;;;12.37;4.60;;;;;;;13.82;54.02;102469.59;5113420;27;20454;-68
2022/12/27 12:09:19;;;;;;;11.50;4.40;;;;;;;14.16;52.36;102471.41;5111677;27;20079;-68
2022/12/27 12:11:57;;;;;;;11.43;4.32;;;;;;;14.06;53.70;102455.63;5112921;27;20027;-68
2022/12/27 12:14:45;;;;;;;10.37;4.30;;;;;;;14.30;52.71;102448.63;5133164;27;20023;-68
2022/12/27 12:17:40;;;;;;;19.07;4.93;;;;;;;14.90;51.59;102445.09;5112348;27;20475;-68
2022/12/27 12:20:31;;;;;;;12.67;4.47;;;;;;;14.37;52.71;102433.72;5119669;27;20062;-68
2022/12/27 12:23:29;;;;;;;9.77;4.80;;;;;;;15.49;49.75;102424.66;5113709;27;20039;-67
2022/12/27 12:25:57;;;;;;;16.03;5.57;;;;;;;14.55;52.31;102423.19;5109622;27;20031;-67
2022/12/27 12:28:58;;;;;;;14.93;4.63;;;;;;;14.23;52.47;102423.19;5131005;27;20066;-68
2022/12/27 12:31:36;;;;;;;9.53;3.77;;;;;;;15.69;49.91;102400.84;5132353;27;20125;-68
2022/12/27 12:34:21;;;;;;;15.90;4.40;;;;;;;16.43;47.45;102399.38;5113430;27;20026;-68
2022/12/27 12:36:56;;;;;;;12.43;5.10;;;;;;;16.90;46.73;102389.25;5132603;27;20069;-68
2022/12/27 12:39:30;;;;;;;10.97;4.30;;;;;;;16.04;47.45;102396.22;5127057;27;20042;-68
2022/12/27 12:42:02;;;;;;;12.53;4.10;;;;;;;15.35;48.24;102395.75;5132450;27;20460;-68
2022/12/27 12:44:48;;;;;;;10.07;3.30;;;;;;;15.00;49.47;102391.53;5132345;27;20084;-68
2022/12/27 12:47:29;;;;;;;14.23;3.90;;;;;;;14.51;50.64;102389.00;5111865;27;20035;-68
2022/12/27 12:50:13;;;;;;;14.17;5.13;;;;;;;16.72;45.95;102364.78;5116075;27;20027;-68
2022/12/27 12:53:08;;;;;;;16.13;5.43;;;;;;;14.71;48.96;102376.72;5132403;27;20042;-68
2022/12/27 12:55:48;;;;;;;16.00;4.57;;;;;;;14.90;49.26;102368.72;5106090;27;20413;-67
2022/12/27 12:58:30;;;;;;;14.57;3.90;;;;;;;14.28;51.56;102365.34;5106340;27;20488;-68
2022/12/27 13:01:15;;;;;;;12.03;3.60;;;;;;;14.68;50.59;102360.91;5109099;27;20027;-68
2022/12/27 13:04:00;;;;;;;12.17;4.63;;;;;;;15.27;49.26;102350.13;5106212;28;20447;-68
2022/12/27 13:06:50;;;;;;;14.03;3.90;;;;;;;14.05;52.27;102359.22;5099921;27;20076;-68
2022/12/27 13:09:18;;;;;;;9.83;4.20;;;;;;;15.07;49.70;102343.22;5123957;27;20037;-67
2022/12/27 13:12:08;;;;;;;15.83;3.80;;;;;;;14.76;50.79;102343.31;5129478;27;20038;-67
2022/12/27 13:14:54;;;;;;;8.80;4.20;;;;;;;14.99;50.26;102337.09;5116042;27;20030;-68
2022/12/27 13:17:46;;;;;;;17.23;3.93;;;;;;;14.84;50.41;102339.81;5123885;27;20482;-67
2022/12/27 13:20:14;;;;;;;14.40;4.33;;;;;;;14.33;51.59;102338.16;5057092;28;20533;-67
2022/12/27 13:23:11;;;;;;;16.40;4.47;;;;;;;14.72;50.66;102330.19;5117979;27;20019;-67
2022/12/27 13:25:52;;;;;;;10.93;3.90;;;;;;;14.62;51.55;102329.31;5125699;27;20370;-67